sensor_id;sensor_type;location;lat;lon;timestamp;temperature;humidity
5705;DHT22;2877;48.238;11.160;2023-06-10T00:00:16;15.20;99.90
5705;DHT22;2877;48.238;11.160;2023-06-10T00:02:42;15.10;99.90
5705;DHT22;2877;48.238;11.160;2023-06-10T00:05:09;15.10;99.90
5705;DHT22;2877;48.238;11.160;2023-06-10T00:07:35;15.10;99.90
5705;DHT22;2877;48.238;11.160;2023-06-10T00:10:05;15.10;99.90
5705;DHT22;2877;48.238;11.160;2023-06-10T00:12:31;15.10;99.90
5705;DHT22;2877;48.238;11.160;2023-06-10T00:15:03;15.10;99.90
5705;DHT22;2877;48.238;11.160;2023-06-10T00:17:28;15.00;99.90
5705;DHT22;2877;48.238;11.160;2023-06-10T00:19:54;15.00;99.90
5705;DHT22;2877;48.238;11.160;2023-06-10T00:22:20;15.00;99.90
5705;DHT22;2877;48.238;11.160;2023-06-10T00:24:46;15.00;99.90
5705;DHT22;2877;48.238;11.160;2023-06-10T00:27:12;15.00;99.90
5705;DHT22;2877;48.238;11.160;2023-06-10T00:29:38;14.90;99.90
5705;DHT22;2877;48.238;11.160;2023-06-10T00:32:05;14.90;99.90
5705;DHT22;2877;48.238;11.160;2023-06-10T00:34:30;14.90;99.90
5705;DHT22;2877;48.238;11.160;2023-06-10T00:36:57;14.80;99.90
5705;DHT22;2877;48.238;11.160;2023-06-10T00:39:23;14.80;99.90
5705;DHT22;2877;48.238;11.160;2023-06-10T00:41:48;14.80;99.90
5705;DHT22;2877;48.238;11.160;2023-06-10T00:44:15;14.70;99.90
5705;DHT22;2877;48.238;11.160;2023-06-10T00:46:41;14.80;99.90
5705;DHT22;2877;48.238;11.160;2023-06-10T00:49:06;14.70;99.90
5705;DHT22;2877;48.238;11.160;2023-06-10T00:51:33;14.70;99.90
5705;DHT22;2877;48.238;11.160;2023-06-10T00:53:59;14.70;99.90
5705;DHT22;2877;48.238;11.160;2023-06-10T00:56:25;14.70;99.90
5705;DHT22;2877;48.238;11.160;2023-06-10T00:58:51;14.60;99.90
5705;DHT22;2877;48.238;11.160;2023-06-10T01:01:17;14.60;99.90
5705;DHT22;2877;48.238;11.160;2023-06-10T01:03:43;14.50;99.90
5705;DHT22;2877;48.238;11.160;2023-06-10T01:06:38;14.50;99.90
5705;DHT22;2877;48.238;11.160;2023-06-10T01:11:53;14.40;99.90
5705;DHT22;2877;48.238;11.160;2023-06-10T01:14:20;14.30;99.90
5705;DHT22;2877;48.238;11.160;2023-06-10T01:16:46;14.30;99.90
5705;DHT22;2877;48.238;11.160;2023-06-10T01:19:12;14.20;99.90
5705;DHT22;2877;48.238;11.160;2023-06-10T01:21:38;14.20;99.90
5705;DHT22;2877;48.238;11.160;2023-06-10T01:24:05;14.30;99.90
5705;DHT22;2877;48.238;11.160;2023-06-10T01:26:34;14.20;99.90
5705;DHT22;2877;48.238;11.160;2023-06-10T01:29:07;14.20;99.90
5705;DHT22;2877;48.238;11.160;2023-06-10T01:31:46;14.10;99.90
5705;DHT22;2877;48.238;11.160;2023-06-10T01:34:17;14.10;99.90
5705;DHT22;2877;48.238;11.160;2023-06-10T01:36:48;14.10;99.90
5705;DHT22;2877;48.238;11.160;2023-06-10T01:39:18;14.10;99.90
5705;DHT22;2877;48.238;11.160;2023-06-10T01:41:46;14.00;99.90
5705;DHT22;2877;48.238;11.160;2023-06-10T01:44:18;13.90;99.90
5705;DHT22;2877;48.238;11.160;2023-06-10T01:46:43;13.90;99.90
5705;DHT22;2877;48.238;11.160;2023-06-10T01:49:09;13.90;99.90
5705;DHT22;2877;48.238;11.160;2023-06-10T01:51:35;13.90;99.90
5705;DHT22;2877;48.238;11.160;2023-06-10T01:54:01;13.90;99.90
5705;DHT22;2877;48.238;11.160;2023-06-10T01:56:27;13.90;99.90
5705;DHT22;2877;48.238;11.160;2023-06-10T01:58:52;13.90;99.90
5705;DHT22;2877;48.238;11.160;2023-06-10T02:01:20;13.90;99.90
5705;DHT22;2877;48.238;11.160;2023-06-10T02:03:46;13.90;99.90
5705;DHT22;2877;48.238;11.160;2023-06-10T02:06:11;13.80;99.90
5705;DHT22;2877;48.238;11.160;2023-06-10T02:08:37;13.80;99.90
5705;DHT22;2877;48.238;11.160;2023-06-10T02:11:02;13.60;99.90
5705;DHT22;2877;48.238;11.160;2023-06-10T02:13:28;13.50;99.90
5705;DHT22;2877;48.238;11.160;2023-06-10T02:15:53;13.50;99.90
5705;DHT22;2877;48.238;11.160;2023-06-10T02:18:20;13.50;99.90
5705;DHT22;2877;48.238;11.160;2023-06-10T02:20:46;13.40;99.90
5705;DHT22;2877;48.238;11.160;2023-06-10T02:23:11;13.40;99.90
5705;DHT22;2877;48.238;11.160;2023-06-10T02:25:37;13.40;99.90
5705;DHT22;2877;48.238;11.160;2023-06-10T02:28:02;13.30;99.90
5705;DHT22;2877;48.238;11.160;2023-06-10T02:30:28;13.30;99.90
5705;DHT22;2877;48.238;11.160;2023-06-10T02:32:54;13.20;99.90
5705;DHT22;2877;48.238;11.160;2023-06-10T02:35:21;13.20;99.90
5705;DHT22;2877;48.238;11.160;2023-06-10T02:37:48;13.10;99.90
5705;DHT22;2877;48.238;11.160;2023-06-10T02:40:13;13.10;99.90
5705;DHT22;2877;48.238;11.160;2023-06-10T02:42:38;13.00;99.90
5705;DHT22;2877;48.238;11.160;2023-06-10T02:45:05;13.00;99.90
5705;DHT22;2877;48.238;11.160;2023-06-10T02:47:30;13.00;99.90
5705;DHT22;2877;48.238;11.160;2023-06-10T02:49:56;12.90;99.90
5705;DHT22;2877;48.238;11.160;2023-06-10T02:52:21;12.90;99.90
5705;DHT22;2877;48.238;11.160;2023-06-10T02:54:48;12.90;99.90
5705;DHT22;2877;48.238;11.160;2023-06-10T02:57:13;12.80;99.90
5705;DHT22;2877;48.238;11.160;2023-06-10T02:59:39;12.80;99.90
5705;DHT22;2877;48.238;11.160;2023-06-10T03:02:05;12.80;99.90
5705;DHT22;2877;48.238;11.160;2023-06-10T03:04:31;12.70;99.90
5705;DHT22;2877;48.238;11.160;2023-06-10T03:06:56;12.70;99.90
5705;DHT22;2877;48.238;11.160;2023-06-10T03:09:22;12.70;99.90
5705;DHT22;2877;48.238;11.160;2023-06-10T03:11:47;12.70;99.90
5705;DHT22;2877;48.238;11.160;2023-06-10T03:14:13;12.70;99.90
5705;DHT22;2877;48.238;11.160;2023-06-10T03:16:38;12.70;99.90
5705;DHT22;2877;48.238;11.160;2023-06-10T03:19:08;12.60;99.90
5705;DHT22;2877;48.238;11.160;2023-06-10T03:21:34;12.70;99.90
5705;DHT22;2877;48.238;11.160;2023-06-10T03:24:00;12.70;99.90
5705;DHT22;2877;48.238;11.160;2023-06-10T03:26:26;12.80;99.90
5705;DHT22;2877;48.238;11.160;2023-06-10T03:28:52;12.80;99.90
5705;DHT22;2877;48.238;11.160;2023-06-10T03:31:18;12.80;99.90
5705;DHT22;2877;48.238;11.160;2023-06-10T03:33:44;12.80;99.90
5705;DHT22;2877;48.238;11.160;2023-06-10T03:36:09;12.80;99.90
5705;DHT22;2877;48.238;11.160;2023-06-10T03:38:35;12.80;99.90
5705;DHT22;2877;48.238;11.160;2023-06-10T03:41:01;12.80;99.90
5705;DHT22;2877;48.238;11.160;2023-06-10T03:43:26;12.80;99.90
5705;DHT22;2877;48.238;11.160;2023-06-10T03:45:53;12.80;99.90
5705;DHT22;2877;48.238;11.160;2023-06-10T03:48:18;12.90;99.90
5705;DHT22;2877;48.238;11.160;2023-06-10T03:50:44;13.00;99.90
5705;DHT22;2877;48.238;11.160;2023-06-10T03:53:10;13.10;99.90
5705;DHT22;2877;48.238;11.160;2023-06-10T03:55:35;13.10;99.90
5705;DHT22;2877;48.238;11.160;2023-06-10T03:58:01;13.20;99.90
5705;DHT22;2877;48.238;11.160;2023-06-10T04:00:27;13.30;99.90
5705;DHT22;2877;48.238;11.160;2023-06-10T04:02:54;13.30;99.90
5705;DHT22;2877;48.238;11.160;2023-06-10T04:05:23;13.40;99.90
5705;DHT22;2877;48.238;11.160;2023-06-10T04:07:49;13.40;99.90
5705;DHT22;2877;48.238;11.160;2023-06-10T04:10:15;13.50;99.90
5705;DHT22;2877;48.238;11.160;2023-06-10T04:12:41;13.60;99.90
5705;DHT22;2877;48.238;11.160;2023-06-10T04:15:07;13.60;99.90
5705;DHT22;2877;48.238;11.160;2023-06-10T04:17:33;13.70;99.90
5705;DHT22;2877;48.238;11.160;2023-06-10T04:19:58;13.70;99.90
5705;DHT22;2877;48.238;11.160;2023-06-10T04:22:24;13.80;99.90
5705;DHT22;2877;48.238;11.160;2023-06-10T04:24:50;13.80;99.90
5705;DHT22;2877;48.238;11.160;2023-06-10T04:27:16;13.90;99.90
5705;DHT22;2877;48.238;11.160;2023-06-10T04:29:41;13.90;99.90
5705;DHT22;2877;48.238;11.160;2023-06-10T04:32:07;14.00;99.90
5705;DHT22;2877;48.238;11.160;2023-06-10T04:34:33;14.10;99.90
5705;DHT22;2877;48.238;11.160;2023-06-10T04:36:59;14.20;99.90
5705;DHT22;2877;48.238;11.160;2023-06-10T04:39:24;14.20;99.90
5705;DHT22;2877;48.238;11.160;2023-06-10T04:41:50;14.30;99.90
5705;DHT22;2877;48.238;11.160;2023-06-10T04:44:15;14.30;99.90
5705;DHT22;2877;48.238;11.160;2023-06-10T04:46:41;14.40;99.90
5705;DHT22;2877;48.238;11.160;2023-06-10T04:49:06;14.50;99.90
5705;DHT22;2877;48.238;11.160;2023-06-10T04:51:33;14.50;99.90
5705;DHT22;2877;48.238;11.160;2023-06-10T04:53:59;14.60;99.90
5705;DHT22;2877;48.238;11.160;2023-06-10T04:56:29;14.70;99.90
5705;DHT22;2877;48.238;11.160;2023-06-10T04:58:58;14.80;99.90
5705;DHT22;2877;48.238;11.160;2023-06-10T05:01:24;14.90;99.90
5705;DHT22;2877;48.238;11.160;2023-06-10T05:03:50;14.90;99.90
5705;DHT22;2877;48.238;11.160;2023-06-10T05:06:16;15.10;99.90
5705;DHT22;2877;48.238;11.160;2023-06-10T05:08:41;15.10;99.90
5705;DHT22;2877;48.238;11.160;2023-06-10T05:11:07;15.30;99.90
5705;DHT22;2877;48.238;11.160;2023-06-10T05:13:32;15.40;99.90
5705;DHT22;2877;48.238;11.160;2023-06-10T05:15:58;15.50;99.90
5705;DHT22;2877;48.238;11.160;2023-06-10T05:18:23;15.60;99.90
5705;DHT22;2877;48.238;11.160;2023-06-10T05:20:49;15.70;99.90
5705;DHT22;2877;48.238;11.160;2023-06-10T05:23:15;15.80;99.90
5705;DHT22;2877;48.238;11.160;2023-06-10T05:25:40;15.90;99.90
5705;DHT22;2877;48.238;11.160;2023-06-10T05:28:07;16.00;99.90
5705;DHT22;2877;48.238;11.160;2023-06-10T05:30:35;16.10;99.90
5705;DHT22;2877;48.238;11.160;2023-06-10T05:33:01;16.30;99.90
5705;DHT22;2877;48.238;11.160;2023-06-10T05:35:26;16.40;99.90
5705;DHT22;2877;48.238;11.160;2023-06-10T05:37:52;16.50;99.90
5705;DHT22;2877;48.238;11.160;2023-06-10T05:40:17;16.60;99.90
5705;DHT22;2877;48.238;11.160;2023-06-10T05:42:43;16.70;99.90
5705;DHT22;2877;48.238;11.160;2023-06-10T05:45:09;16.80;99.90
5705;DHT22;2877;48.238;11.160;2023-06-10T05:47:34;16.90;99.90
5705;DHT22;2877;48.238;11.160;2023-06-10T05:50:00;17.00;99.90
5705;DHT22;2877;48.238;11.160;2023-06-10T05:52:26;17.10;99.90
5705;DHT22;2877;48.238;11.160;2023-06-10T05:54:51;17.20;99.90
5705;DHT22;2877;48.238;11.160;2023-06-10T05:57:17;17.30;99.90
5705;DHT22;2877;48.238;11.160;2023-06-10T05:59:42;17.40;99.90
5705;DHT22;2877;48.238;11.160;2023-06-10T06:02:08;17.50;99.90
5705;DHT22;2877;48.238;11.160;2023-06-10T06:04:34;17.60;99.90
5705;DHT22;2877;48.238;11.160;2023-06-10T06:07:00;17.70;99.90
5705;DHT22;2877;48.238;11.160;2023-06-10T06:09:25;17.80;99.90
5705;DHT22;2877;48.238;11.160;2023-06-10T06:11:51;17.90;99.90
5705;DHT22;2877;48.238;11.160;2023-06-10T06:14:16;18.00;99.90
5705;DHT22;2877;48.238;11.160;2023-06-10T06:16:42;18.10;99.90
5705;DHT22;2877;48.238;11.160;2023-06-10T06:19:08;18.20;99.90
5705;DHT22;2877;48.238;11.160;2023-06-10T06:21:36;18.20;99.90
5705;DHT22;2877;48.238;11.160;2023-06-10T06:24:02;18.40;99.90
5705;DHT22;2877;48.238;11.160;2023-06-10T06:26:27;18.50;99.90
5705;DHT22;2877;48.238;11.160;2023-06-10T06:28:53;18.60;99.90
5705;DHT22;2877;48.238;11.160;2023-06-10T06:31:18;18.60;99.90
5705;DHT22;2877;48.238;11.160;2023-06-10T06:33:44;18.80;99.90
5705;DHT22;2877;48.238;11.160;2023-06-10T06:36:09;18.80;99.90
5705;DHT22;2877;48.238;11.160;2023-06-10T06:38:35;18.90;99.90
5705;DHT22;2877;48.238;11.160;2023-06-10T06:41:00;19.00;99.90
5705;DHT22;2877;48.238;11.160;2023-06-10T06:43:31;19.00;99.90
5705;DHT22;2877;48.238;11.160;2023-06-10T06:45:57;19.20;99.90
5705;DHT22;2877;48.238;11.160;2023-06-10T06:48:23;19.30;99.90
5705;DHT22;2877;48.238;11.160;2023-06-10T06:50:48;19.40;99.90
5705;DHT22;2877;48.238;11.160;2023-06-10T06:53:14;19.40;99.90
5705;DHT22;2877;48.238;11.160;2023-06-10T06:55:40;19.50;99.90
5705;DHT22;2877;48.238;11.160;2023-06-10T06:58:05;19.50;99.90
5705;DHT22;2877;48.238;11.160;2023-06-10T07:00:31;19.70;99.90
5705;DHT22;2877;48.238;11.160;2023-06-10T07:02:57;19.70;99.90
5705;DHT22;2877;48.238;11.160;2023-06-10T07:05:23;19.90;99.90
5705;DHT22;2877;48.238;11.160;2023-06-10T07:07:51;20.10;99.90
5705;DHT22;2877;48.238;11.160;2023-06-10T07:10:21;20.20;99.90
5705;DHT22;2877;48.238;11.160;2023-06-10T07:12:47;20.20;99.90
5705;DHT22;2877;48.238;11.160;2023-06-10T07:15:13;20.30;99.90
5705;DHT22;2877;48.238;11.160;2023-06-10T07:17:38;20.40;99.90
5705;DHT22;2877;48.238;11.160;2023-06-10T07:20:04;20.50;99.90
5705;DHT22;2877;48.238;11.160;2023-06-10T07:22:30;20.60;99.90
5705;DHT22;2877;48.238;11.160;2023-06-10T07:24:56;20.70;99.90
5705;DHT22;2877;48.238;11.160;2023-06-10T07:27:21;20.80;99.90
5705;DHT22;2877;48.238;11.160;2023-06-10T07:29:47;20.80;99.90
5705;DHT22;2877;48.238;11.160;2023-06-10T07:32:12;20.90;99.90
5705;DHT22;2877;48.238;11.160;2023-06-10T07:34:38;20.90;99.90
5705;DHT22;2877;48.238;11.160;2023-06-10T07:37:04;20.90;99.90
5705;DHT22;2877;48.238;11.160;2023-06-10T07:39:29;21.00;99.90
5705;DHT22;2877;48.238;11.160;2023-06-10T07:41:55;21.20;99.90
5705;DHT22;2877;48.238;11.160;2023-06-10T07:44:22;21.30;99.90
5705;DHT22;2877;48.238;11.160;2023-06-10T07:46:48;21.30;99.90
5705;DHT22;2877;48.238;11.160;2023-06-10T07:49:14;21.40;99.90
5705;DHT22;2877;48.238;11.160;2023-06-10T07:51:39;21.60;99.90
5705;DHT22;2877;48.238;11.160;2023-06-10T07:54:05;21.80;99.90
5705;DHT22;2877;48.238;11.160;2023-06-10T07:56:30;21.80;99.90
5705;DHT22;2877;48.238;11.160;2023-06-10T07:58:57;22.00;99.90
5705;DHT22;2877;48.238;11.160;2023-06-10T08:01:22;22.00;99.90
5705;DHT22;2877;48.238;11.160;2023-06-10T08:03:48;21.90;99.90
5705;DHT22;2877;48.238;11.160;2023-06-10T08:06:14;22.00;99.90
5705;DHT22;2877;48.238;11.160;2023-06-10T08:08:39;22.00;99.90
5705;DHT22;2877;48.238;11.160;2023-06-10T08:11:10;22.20;99.90
5705;DHT22;2877;48.238;11.160;2023-06-10T08:13:36;22.30;99.90
5705;DHT22;2877;48.238;11.160;2023-06-10T08:16:01;22.40;99.90
5705;DHT22;2877;48.238;11.160;2023-06-10T08:18:28;22.40;99.90
5705;DHT22;2877;48.238;11.160;2023-06-10T08:20:54;22.30;99.90
5705;DHT22;2877;48.238;11.160;2023-06-10T08:23:20;22.20;99.90
5705;DHT22;2877;48.238;11.160;2023-06-10T08:25:45;22.20;99.90
5705;DHT22;2877;48.238;11.160;2023-06-10T08:28:10;22.40;99.90
5705;DHT22;2877;48.238;11.160;2023-06-10T08:30:36;22.40;99.90
5705;DHT22;2877;48.238;11.160;2023-06-10T08:33:02;22.50;99.90
5705;DHT22;2877;48.238;11.160;2023-06-10T08:35:27;22.70;99.90
5705;DHT22;2877;48.238;11.160;2023-06-10T08:37:53;22.80;99.90
5705;DHT22;2877;48.238;11.160;2023-06-10T08:40:18;23.00;99.90
5705;DHT22;2877;48.238;11.160;2023-06-10T08:43:00;22.90;99.90
5705;DHT22;2877;48.238;11.160;2023-06-10T08:45:30;22.90;99.90
5705;DHT22;2877;48.238;11.160;2023-06-10T08:48:02;23.00;99.90
5705;DHT22;2877;48.238;11.160;2023-06-10T08:50:30;23.20;99.90
5705;DHT22;2877;48.238;11.160;2023-06-10T08:52:58;23.30;99.90
5705;DHT22;2877;48.238;11.160;2023-06-10T08:55:29;23.30;99.90
5705;DHT22;2877;48.238;11.160;2023-06-10T08:57:56;23.50;99.90
5705;DHT22;2877;48.238;11.160;2023-06-10T09:00:22;23.50;99.90
5705;DHT22;2877;48.238;11.160;2023-06-10T09:02:47;23.60;99.90
5705;DHT22;2877;48.238;11.160;2023-06-10T09:05:13;23.60;98.60
5705;DHT22;2877;48.238;11.160;2023-06-10T09:07:39;23.70;99.50
5705;DHT22;2877;48.238;11.160;2023-06-10T09:10:05;23.70;99.00
5705;DHT22;2877;48.238;11.160;2023-06-10T09:12:33;24.10;99.50
5705;DHT22;2877;48.238;11.160;2023-06-10T09:14:59;24.20;97.40
5705;DHT22;2877;48.238;11.160;2023-06-10T09:17:26;24.30;96.30
5705;DHT22;2877;48.238;11.160;2023-06-10T09:19:52;24.40;96.10
5705;DHT22;2877;48.238;11.160;2023-06-10T09:22:21;24.40;95.40
5705;DHT22;2877;48.238;11.160;2023-06-10T09:24:47;24.60;93.80
5705;DHT22;2877;48.238;11.160;2023-06-10T09:27:13;24.70;93.70
5705;DHT22;2877;48.238;11.160;2023-06-10T09:29:51;24.90;93.90
5705;DHT22;2877;48.238;11.160;2023-06-10T09:32:18;24.90;94.10
5705;DHT22;2877;48.238;11.160;2023-06-10T09:34:44;24.90;93.90
5705;DHT22;2877;48.238;11.160;2023-06-10T09:37:10;24.90;94.30
5705;DHT22;2877;48.238;11.160;2023-06-10T09:39:38;25.00;93.70
5705;DHT22;2877;48.238;11.160;2023-06-10T09:42:24;24.90;92.30
5705;DHT22;2877;48.238;11.160;2023-06-10T09:44:51;24.90;92.30
5705;DHT22;2877;48.238;11.160;2023-06-10T09:47:21;24.90;91.20
5705;DHT22;2877;48.238;11.160;2023-06-10T09:49:50;25.00;92.80
5705;DHT22;2877;48.238;11.160;2023-06-10T09:52:25;25.00;92.30
5705;DHT22;2877;48.238;11.160;2023-06-10T09:54:51;25.10;92.10
5705;DHT22;2877;48.238;11.160;2023-06-10T09:57:18;25.30;92.70
5705;DHT22;2877;48.238;11.160;2023-06-10T09:59:45;25.60;90.70
5705;DHT22;2877;48.238;11.160;2023-06-10T10:02:15;25.80;88.80
5705;DHT22;2877;48.238;11.160;2023-06-10T10:04:41;25.50;88.30
5705;DHT22;2877;48.238;11.160;2023-06-10T10:07:07;25.80;88.50
5705;DHT22;2877;48.238;11.160;2023-06-10T10:09:35;26.00;85.90
5705;DHT22;2877;48.238;11.160;2023-06-10T10:12:02;26.10;86.20
5705;DHT22;2877;48.238;11.160;2023-06-10T10:14:28;25.60;87.00
5705;DHT22;2877;48.238;11.160;2023-06-10T10:16:57;25.50;89.70
5705;DHT22;2877;48.238;11.160;2023-06-10T10:19:30;25.20;87.80
5705;DHT22;2877;48.238;11.160;2023-06-10T10:22:01;25.20;89.60
5705;DHT22;2877;48.238;11.160;2023-06-10T10:24:39;25.50;89.20
5705;DHT22;2877;48.238;11.160;2023-06-10T10:27:21;25.60;87.10
5705;DHT22;2877;48.238;11.160;2023-06-10T10:29:52;25.50;88.50
5705;DHT22;2877;48.238;11.160;2023-06-10T10:32:21;25.60;85.20
5705;DHT22;2877;48.238;11.160;2023-06-10T10:35:08;25.30;83.70
5705;DHT22;2877;48.238;11.160;2023-06-10T10:37:35;25.10;83.90
5705;DHT22;2877;48.238;11.160;2023-06-10T10:40:01;25.40;85.90
5705;DHT22;2877;48.238;11.160;2023-06-10T10:42:28;25.90;85.80
5705;DHT22;2877;48.238;11.160;2023-06-10T10:44:55;26.40;82.10
5705;DHT22;2877;48.238;11.160;2023-06-10T10:47:21;26.40;83.20
5705;DHT22;2877;48.238;11.160;2023-06-10T10:49:50;26.30;82.00
5705;DHT22;2877;48.238;11.160;2023-06-10T10:52:15;26.10;84.80
5705;DHT22;2877;48.238;11.160;2023-06-10T10:54:45;26.00;83.50
5705;DHT22;2877;48.238;11.160;2023-06-10T10:57:17;25.80;83.70
5705;DHT22;2877;48.238;11.160;2023-06-10T11:00:01;25.60;82.90
5705;DHT22;2877;48.238;11.160;2023-06-10T11:02:33;26.00;82.30
5705;DHT22;2877;48.238;11.160;2023-06-10T11:05:00;26.80;81.50
5705;DHT22;2877;48.238;11.160;2023-06-10T11:07:26;27.30;82.80
5705;DHT22;2877;48.238;11.160;2023-06-10T11:15:22;28.80;76.00
5705;DHT22;2877;48.238;11.160;2023-06-10T11:18:11;28.80;73.40
5705;DHT22;2877;48.238;11.160;2023-06-10T11:31:29;29.50;69.30
5705;DHT22;2877;48.238;11.160;2023-06-10T11:33:59;29.10;69.10
5705;DHT22;2877;48.238;11.160;2023-06-10T11:36:25;29.00;69.40
5705;DHT22;2877;48.238;11.160;2023-06-10T11:38:56;29.50;69.50
5705;DHT22;2877;48.238;11.160;2023-06-10T11:41:21;29.90;68.50
5705;DHT22;2877;48.238;11.160;2023-06-10T11:43:48;29.70;66.40
5705;DHT22;2877;48.238;11.160;2023-06-10T11:46:14;29.20;66.60
5705;DHT22;2877;48.238;11.160;2023-06-10T11:48:51;28.70;68.80
5705;DHT22;2877;48.238;11.160;2023-06-10T11:51:17;28.00;69.70
5705;DHT22;2877;48.238;11.160;2023-06-10T11:53:49;27.50;69.50
5705;DHT22;2877;48.238;11.160;2023-06-10T11:56:22;27.00;71.20
5705;DHT22;2877;48.238;11.160;2023-06-10T11:59:02;26.60;72.50
5705;DHT22;2877;48.238;11.160;2023-06-10T12:01:36;26.30;74.80
5705;DHT22;2877;48.238;11.160;2023-06-10T12:04:06;26.40;75.80
5705;DHT22;2877;48.238;11.160;2023-06-10T12:06:42;26.70;75.50
5705;DHT22;2877;48.238;11.160;2023-06-10T12:09:20;27.20;73.00
5705;DHT22;2877;48.238;11.160;2023-06-10T12:11:49;27.00;73.10
5705;DHT22;2877;48.238;11.160;2023-06-10T12:14:16;26.80;71.00
5705;DHT22;2877;48.238;11.160;2023-06-10T12:16:48;26.70;71.40
5705;DHT22;2877;48.238;11.160;2023-06-10T12:19:14;26.70;69.90
5705;DHT22;2877;48.238;11.160;2023-06-10T12:21:39;26.80;70.80
5705;DHT22;2877;48.238;11.160;2023-06-10T12:24:10;27.00;71.60
5705;DHT22;2877;48.238;11.160;2023-06-10T12:26:41;27.40;68.90
5705;DHT22;2877;48.238;11.160;2023-06-10T12:29:22;27.40;71.80
5705;DHT22;2877;48.238;11.160;2023-06-10T12:31:58;27.20;71.50
5705;DHT22;2877;48.238;11.160;2023-06-10T12:34:35;28.10;71.10
5705;DHT22;2877;48.238;11.160;2023-06-10T12:37:02;28.70;68.40
5705;DHT22;2877;48.238;11.160;2023-06-10T12:39:30;28.80;68.70
5705;DHT22;2877;48.238;11.160;2023-06-10T12:41:55;29.20;68.00
5705;DHT22;2877;48.238;11.160;2023-06-10T12:44:31;30.00;67.70
5705;DHT22;2877;48.238;11.160;2023-06-10T12:46:57;30.30;64.30
5705;DHT22;2877;48.238;11.160;2023-06-10T12:49:23;30.60;63.30
5705;DHT22;2877;48.238;11.160;2023-06-10T12:51:49;31.00;62.40
5705;DHT22;2877;48.238;11.160;2023-06-10T12:54:14;31.40;60.10
5705;DHT22;2877;48.238;11.160;2023-06-10T12:56:40;31.30;59.80
5705;DHT22;2877;48.238;11.160;2023-06-10T12:59:05;31.80;59.60
5705;DHT22;2877;48.238;11.160;2023-06-10T13:01:31;31.40;58.70
5705;DHT22;2877;48.238;11.160;2023-06-10T13:03:58;31.40;59.20
5705;DHT22;2877;48.238;11.160;2023-06-10T13:06:23;31.40;58.40
5705;DHT22;2877;48.238;11.160;2023-06-10T13:08:49;31.70;58.60
5705;DHT22;2877;48.238;11.160;2023-06-10T13:11:16;32.30;57.10
5705;DHT22;2877;48.238;11.160;2023-06-10T13:13:41;33.00;54.60
5705;DHT22;2877;48.238;11.160;2023-06-10T13:16:08;33.00;54.80
5705;DHT22;2877;48.238;11.160;2023-06-10T13:18:33;33.00;53.60
5705;DHT22;2877;48.238;11.160;2023-06-10T13:21:03;32.70;53.10
5705;DHT22;2877;48.238;11.160;2023-06-10T13:23:29;32.80;54.00
5705;DHT22;2877;48.238;11.160;2023-06-10T13:25:55;33.60;53.10
5705;DHT22;2877;48.238;11.160;2023-06-10T13:28:21;33.60;52.20
5705;DHT22;2877;48.238;11.160;2023-06-10T13:30:46;34.00;51.70
5705;DHT22;2877;48.238;11.160;2023-06-10T13:33:12;34.30;51.00
5705;DHT22;2877;48.238;11.160;2023-06-10T13:35:37;35.00;48.60
5705;DHT22;2877;48.238;11.160;2023-06-10T13:38:03;35.50;47.00
5705;DHT22;2877;48.238;11.160;2023-06-10T13:40:29;36.00;45.80
5705;DHT22;2877;48.238;11.160;2023-06-10T13:42:55;36.70;46.70
5705;DHT22;2877;48.238;11.160;2023-06-10T13:45:20;36.90;45.30
5705;DHT22;2877;48.238;11.160;2023-06-10T13:47:46;36.60;45.50
5705;DHT22;2877;48.238;11.160;2023-06-10T13:50:11;36.70;46.30
5705;DHT22;2877;48.238;11.160;2023-06-10T13:52:38;36.50;44.90
5705;DHT22;2877;48.238;11.160;2023-06-10T13:55:04;36.40;44.80
5705;DHT22;2877;48.238;11.160;2023-06-10T13:57:30;36.80;45.00
5705;DHT22;2877;48.238;11.160;2023-06-10T13:59:55;36.90;45.30
5705;DHT22;2877;48.238;11.160;2023-06-10T14:02:21;37.40;44.60
5705;DHT22;2877;48.238;11.160;2023-06-10T14:04:47;37.10;44.10
5705;DHT22;2877;48.238;11.160;2023-06-10T14:07:13;36.20;44.30
5705;DHT22;2877;48.238;11.160;2023-06-10T14:09:38;35.70;44.00
5705;DHT22;2877;48.238;11.160;2023-06-10T14:12:04;34.60;45.70
5705;DHT22;2877;48.238;11.160;2023-06-10T14:14:30;34.80;46.50
5705;DHT22;2877;48.238;11.160;2023-06-10T14:16:58;34.20;45.90
5705;DHT22;2877;48.238;11.160;2023-06-10T14:19:24;33.50;48.40
5705;DHT22;2877;48.238;11.160;2023-06-10T14:21:49;33.50;51.10
5705;DHT22;2877;48.238;11.160;2023-06-10T14:24:15;33.20;49.60
5705;DHT22;2877;48.238;11.160;2023-06-10T14:26:40;32.70;50.80
5705;DHT22;2877;48.238;11.160;2023-06-10T14:29:06;32.20;51.60
5705;DHT22;2877;48.238;11.160;2023-06-10T14:31:32;31.90;52.80
5705;DHT22;2877;48.238;11.160;2023-06-10T14:33:58;31.30;52.80
5705;DHT22;2877;48.238;11.160;2023-06-10T14:36:23;30.40;53.60
5705;DHT22;2877;48.238;11.160;2023-06-10T14:38:49;30.90;53.10
5705;DHT22;2877;48.238;11.160;2023-06-10T14:41:15;32.10;51.50
5705;DHT22;2877;48.238;11.160;2023-06-10T14:43:40;33.10;50.10
5705;DHT22;2877;48.238;11.160;2023-06-10T14:46:06;34.10;48.20
5705;DHT22;2877;48.238;11.160;2023-06-10T14:48:32;35.00;46.60
5705;DHT22;2877;48.238;11.160;2023-06-10T14:50:57;35.60;45.20
5705;DHT22;2877;48.238;11.160;2023-06-10T14:53:23;36.10;44.10
5705;DHT22;2877;48.238;11.160;2023-06-10T14:55:48;36.70;44.50
5705;DHT22;2877;48.238;11.160;2023-06-10T14:58:14;37.30;43.70
5705;DHT22;2877;48.238;11.160;2023-06-10T15:00:39;36.80;42.70
5705;DHT22;2877;48.238;11.160;2023-06-10T15:03:05;36.30;43.50
5705;DHT22;2877;48.238;11.160;2023-06-10T15:05:30;36.30;43.60
5705;DHT22;2877;48.238;11.160;2023-06-10T15:07:56;35.60;44.00
5705;DHT22;2877;48.238;11.160;2023-06-10T15:10:21;33.90;46.20
5705;DHT22;2877;48.238;11.160;2023-06-10T15:12:47;33.90;46.00
5705;DHT22;2877;48.238;11.160;2023-06-10T15:15:13;33.70;45.40
5705;DHT22;2877;48.238;11.160;2023-06-10T15:17:39;33.50;45.00
5705;DHT22;2877;48.238;11.160;2023-06-10T15:20:05;33.40;46.40
5705;DHT22;2877;48.238;11.160;2023-06-10T15:22:31;32.50;47.60
5705;DHT22;2877;48.238;11.160;2023-06-10T15:24:56;31.40;50.00
5705;DHT22;2877;48.238;11.160;2023-06-10T15:27:23;30.50;51.30
5705;DHT22;2877;48.238;11.160;2023-06-10T15:29:48;29.50;53.80
5705;DHT22;2877;48.238;11.160;2023-06-10T15:32:14;29.00;54.80
5705;DHT22;2877;48.238;11.160;2023-06-10T15:34:39;28.60;55.70
5705;DHT22;2877;48.238;11.160;2023-06-10T15:37:05;28.50;56.30
5705;DHT22;2877;48.238;11.160;2023-06-10T15:39:30;28.50;57.80
5705;DHT22;2877;48.238;11.160;2023-06-10T15:41:56;28.40;57.90
5705;DHT22;2877;48.238;11.160;2023-06-10T15:44:22;28.20;57.30
5705;DHT22;2877;48.238;11.160;2023-06-10T15:46:48;28.20;56.30
5705;DHT22;2877;48.238;11.160;2023-06-10T15:49:14;28.20;56.20
5705;DHT22;2877;48.238;11.160;2023-06-10T15:51:39;28.60;54.90
5705;DHT22;2877;48.238;11.160;2023-06-10T15:54:05;28.90;53.60
5705;DHT22;2877;48.238;11.160;2023-06-10T15:56:30;29.30;52.80
5705;DHT22;2877;48.238;11.160;2023-06-10T15:58:56;29.90;51.80
5705;DHT22;2877;48.238;11.160;2023-06-10T16:01:22;30.20;50.00